Time;durP1;ratioP1;P1;durP2;ratioP2;P2;SDS_P1;SDS_P2;PMS_P1;PMS_P2;Temp;Humidity;BMP_temperature;BMP_pressure;BME280_temperature;BME280_humidity;BME280_pressure;Samples;Min_cycle;Max_cycle;Signal;HPM_P1;HPM_P2
2022/06/15 00:00:18;;;;;;;7.78;4.85;;;;;;;9.58;100.00;93233.78;2098625;28;20781;-83
2022/06/15 00:01:24;;;;;;;9.40;4.07;;;;;;;9.57;100.00;93232.28;2098512;28;20028;-84
2022/06/15 00:02:25;;;;;;;7.88;4.47;;;;;;;9.56;100.00;93228.06;2098169;28;20032;-85
2022/06/15 00:03:31;;;;;;;6.88;4.50;;;;;;;9.55;100.00;93229.25;2090536;28;20374;-84
2022/06/15 00:04:34;;;;;;;7.07;4.72;;;;;;;9.58;100.00;93233.78;2095759;28;20466;-83
2022/06/15 00:05:43;;;;;;;6.45;4.60;;;;;;;9.54;100.00;93227.72;2098487;28;20508;-83
2022/06/15 00:06:45;;;;;;;8.48;4.75;;;;;;;9.56;100.00;93221.97;2092777;28;20094;-85
2022/06/15 00:07:46;;;;;;;9.25;4.60;;;;;;;9.52;100.00;93226.63;2098633;28;20029;-84
2022/06/15 00:08:52;;;;;;;7.70;4.38;;;;;;;9.52;100.00;93224.69;2098803;28;20111;-86
2022/06/15 00:09:54;;;;;;;7.45;4.20;;;;;;;9.48;100.00;93223.25;2091637;28;20021;-86
2022/06/15 00:10:55;;;;;;;6.72;4.50;;;;;;;9.44;100.00;93219.88;2098624;28;20025;-83
2022/06/15 00:11:56;;;;;;;7.78;4.22;;;;;;;9.51;100.00;93228.53;2098353;28;20032;-84
2022/06/15 00:12:57;;;;;;;5.13;4.20;;;;;;;9.54;100.00;93218.97;2090476;28;20552;-84
2022/06/15 00:14:02;;;;;;;8.25;4.65;;;;;;;9.51;100.00;93220.53;2106849;28;20043;-85
2022/06/15 00:15:05;;;;;;;9.25;4.07;;;;;;;9.39;100.00;93225.69;2098444;28;20077;-82
2022/06/15 00:16:06;;;;;;;6.75;4.40;;;;;;;9.43;100.00;93224.47;2090411;28;20482;-86
2022/06/15 00:17:07;;;;;;;8.35;4.45;;;;;;;9.34;100.00;93224.22;2098270;28;20024;-86
2022/06/15 00:18:08;;;;;;;11.00;4.60;;;;;;;9.35;100.00;93217.75;2081892;28;20696;-86
2022/06/15 00:19:10;;;;;;;8.02;4.32;;;;;;;9.26;100.00;93222.81;2081939;28;20025;-82
2022/06/15 00:20:11;;;;;;;6.03;4.10;;;;;;;9.23;100.00;93221.00;2090438;28;20028;-86
2022/06/15 00:21:15;;;;;;;7.50;3.97;;;;;;;9.24;100.00;93225.91;2090034;28;20795;-84
2022/06/15 00:22:16;;;;;;;7.35;4.40;;;;;;;9.30;100.00;93221.63;2088130;28;20029;-84
2022/06/15 00:23:17;;;;;;;6.50;3.90;;;;;;;9.32;100.00;93226.56;2088249;28;20036;-84
2022/06/15 00:24:19;;;;;;;5.80;4.30;;;;;;;9.30;100.00;93224.28;2090307;28;20581;-85
2022/06/15 00:25:19;;;;;;;6.40;4.45;;;;;;;9.40;100.00;93216.53;2090241;28;20035;-87
2022/06/15 00:26:20;;;;;;;6.45;4.47;;;;;;;9.41;100.00;93218.03;2089761;28;20195;-82
2022/06/15 00:27:22;;;;;;;6.90;4.07;;;;;;;9.29;100.00;93224.69;2098355;28;20025;-82
2022/06/15 00:28:25;;;;;;;8.63;4.70;;;;;;;9.32;100.00;93226.56;2115224;28;20020;-86
2022/06/15 00:29:26;;;;;;;6.80;4.35;;;;;;;9.34;100.00;93221.56;2106946;28;20038;-87
2022/06/15 00:30:28;;;;;;;6.53;3.60;;;;;;;9.26;100.00;93222.81;2090067;28;20032;-81
2022/06/15 00:31:29;;;;;;;6.75;4.22;;;;;;;9.30;100.00;93229.63;2090259;28;20025;-82
2022/06/15 00:32:30;;;;;;;6.35;4.32;;;;;;;9.26;100.00;93228.94;2089465;28;20032;-83
2022/06/15 00:33:31;;;;;;;5.57;4.22;;;;;;;9.29;100.00;93224.69;2098344;28;20054;-87
2022/06/15 00:34:33;;;;;;;8.88;4.50;;;;;;;9.18;100.00;93230.19;2098139;28;20351;-84
2022/06/15 00:35:35;;;;;;;5.65;4.03;;;;;;;9.18;100.00;93224.13;2098344;28;20051;-83
2022/06/15 00:36:36;;;;;;;7.32;4.22;;;;;;;9.17;100.00;93220.66;2090063;28;20025;-86
2022/06/15 00:37:37;;;;;;;7.90;4.28;;;;;;;9.22;100.00;93222.91;2089903;28;20025;-86
2022/06/15 00:38:42;;;;;;;6.35;4.35;;;;;;;9.20;100.00;93224.44;2090074;28;20390;-83
2022/06/15 00:39:43;;;;;;;6.55;4.20;;;;;;;9.13;100.00;93220.00;2091047;28;20029;-84
2022/06/15 00:40:44;;;;;;;6.63;4.32;;;;;;;9.18;100.00;93218.78;2090032;28;20045;-88
2022/06/15 00:41:45;;;;;;;5.68;4.28;;;;;;;9.16;100.00;93218.41;2098230;28;20039;-86
2022/06/15 00:42:46;;;;;;;10.05;4.40;;;;;;;9.21;100.00;93225.97;2097917;28;20024;-84
2022/06/15 00:43:52;;;;;;;9.10;4.68;;;;;;;9.08;100.00;93218.50;2090130;28;20027;-87
2022/06/15 00:44:54;;;;;;;6.90;4.07;;;;;;;9.08;100.00;93221.19;2082967;28;20446;-82
2022/06/15 00:45:55;;;;;;;7.50;4.60;;;;;;;9.04;100.00;93227.72;2090238;28;20498;-86
2022/06/15 00:47:01;;;;;;;7.00;4.63;;;;;;;9.10;100.00;93218.13;2081885;28;20475;-83
2022/06/15 00:48:03;;;;;;;7.57;4.57;;;;;;;9.09;100.00;93219.28;2091277;28;20132;-82
2022/06/15 00:49:18;;;;;;;5.75;4.63;;;;;;;9.05;100.00;93219.34;2089769;28;20464;-82
2022/06/15 00:50:24;;;;;;;6.65;3.90;;;;;;;9.10;100.00;93222.72;2085768;28;20036;-85
2022/06/15 00:51:26;;;;;;;6.80;4.15;;;;;;;9.24;100.00;93220.56;2091125;28;20051;-83
2022/06/15 00:52:49;;;;;;;5.95;4.40;;;;;;;9.06;100.00;93220.09;2105963;28;20079;-84
2022/06/15 00:53:51;;;;;;;5.45;4.35;;;;;;;9.04;100.00;93217.06;2099790;28;20031;-83
2022/06/15 00:54:54;;;;;;;5.05;4.28;;;;;;;9.00;100.00;93227.78;2098320;28;20505;-84
2022/06/15 00:55:56;;;;;;;8.50;4.70;;;;;;;8.98;100.00;93218.66;2098697;28;20761;-81
2022/06/15 00:56:57;;;;;;;9.35;4.75;;;;;;;9.00;100.00;93217.13;2106576;28;20569;-84
2022/06/15 00:58:03;;;;;;;8.27;4.28;;;;;;;9.02;100.00;93214.78;2098064;28;20024;-85
2022/06/15 00:59:13;;;;;;;7.35;4.35;;;;;;;8.99;100.00;93225.50;2091150;28;20029;-84
2022/06/15 01:00:15;;;;;;;7.00;4.15;;;;;;;9.02;100.00;93222.78;2094556;28;20222;-86
2022/06/15 01:01:17;;;;;;;8.02;4.57;;;;;;;8.97;100.00;93219.84;2090281;28;20048;-86
2022/06/15 01:02:18;;;;;;;7.05;4.18;;;;;;;8.97;100.00;93223.25;2090266;28;20036;-84
2022/06/15 01:03:19;;;;;;;7.72;4.43;;;;;;;8.90;100.00;93222.59;2092185;28;20060;-84
2022/06/15 01:04:21;;;;;;;5.80;4.43;;;;;;;8.87;100.00;93221.50;2098357;28;20025;-84
2022/06/15 01:05:26;;;;;;;5.95;4.60;;;;;;;8.89;100.00;93223.75;2106331;28;20102;-84
2022/06/15 01:06:48;;;;;;;8.55;4.43;;;;;;;8.93;100.00;93219.13;2098599;28;20052;-81
2022/06/15 01:07:52;;;;;;;6.22;4.07;;;;;;;8.93;100.00;93216.47;2087481;28;20032;-85
2022/06/15 01:09:24;;;;;;;6.18;4.20;;;;;;;8.90;100.00;93215.34;2087979;28;20560;-82
2022/06/15 01:11:02;;;;;;;4.75;3.72;;;;;;;8.89;100.00;93219.16;2098628;28;20062;-83
2022/06/15 01:12:56;;;;;;;5.05;3.63;;;;;;;8.91;100.00;93213.44;2103162;28;20035;-87
2022/06/15 01:14:39;;;;;;;4.95;3.75;;;;;;;8.85;100.00;93212.38;2092498;28;20079;-86
2022/06/15 01:16:11;;;;;;;8.10;4.07;;;;;;;8.78;100.00;93210.56;2072415;28;20465;-85
2022/06/15 01:17:43;;;;;;;7.90;3.75;;;;;;;8.70;100.00;93212.59;2089927;28;20031;-82
2022/06/15 01:19:15;;;;;;;4.85;3.70;;;;;;;8.72;100.00;93206.84;2089938;28;20085;-86
2022/06/15 01:20:45;;;;;;;6.55;3.78;;;;;;;8.80;100.00;93209.00;2093812;28;20505;-84
2022/06/15 01:21:50;;;;;;;;;;;;;;;8.86;100.00;93209.31;2089942;28;20052;-83
2022/06/15 01:23:34;;;;;;;5.82;3.78;;;;;;;8.84;100.00;93198.31;2082737;28;19909;-82
2022/06/15 01:24:41;;;;;;;4.40;3.90;;;;;;;8.83;100.00;93192.22;2100456;28;20050;-83
2022/06/15 01:26:13;;;;;;;4.80;3.85;;;;;;;8.74;100.00;93189.31;2097789;28;20405;-82
2022/06/15 01:27:14;;;;;;;5.35;3.70;;;;;;;8.76;100.00;93194.22;2089653;28;20048;-85
2022/06/15 01:28:31;;;;;;;7.03;3.95;;;;;;;8.71;100.00;93189.34;2104052;28;20035;-86
2022/06/15 01:30:09;;;;;;;5.10;3.80;;;;;;;8.66;100.00;93189.81;2100269;28;20028;-86
2022/06/15 01:31:24;;;;;;;6.90;3.90;;;;;;;8.71;100.00;93184.03;2102875;28;20106;-84
2022/06/15 01:32:39;;;;;;;5.35;3.65;;;;;;;8.65;100.00;93190.94;2102048;28;20016;-85
2022/06/15 01:34:09;;;;;;;5.55;3.67;;;;;;;8.66;100.00;93190.56;2116488;27;20020;-85
2022/06/15 01:35:37;;;;;;;9.10;4.55;;;;;;;8.67;100.00;93186.72;2098898;28;20702;-84
2022/06/15 01:37:39;;;;;;;5.57;4.00;;;;;;;8.67;100.00;93181.41;2092744;28;20511;-82
2022/06/15 01:38:52;;;;;;;8.23;4.10;;;;;;;8.65;100.00;93193.59;2048367;29;20042;-86
2022/06/15 01:40:38;;;;;;;6.72;4.07;;;;;;;8.63;100.00;93191.34;2063537;28;20038;-88
2022/06/15 01:41:56;;;;;;;7.65;3.45;;;;;;;8.58;100.00;93189.13;2058773;28;20109;-84
2022/06/15 01:43:02;;;;;;;7.35;4.35;;;;;;;8.53;100.00;93184.25;2056204;28;20042;-85
2022/06/15 01:44:13;;;;;;;7.50;4.47;;;;;;;8.58;100.00;93189.13;2076887;28;20041;-82
2022/06/15 01:45:19;;;;;;;5.03;4.10;;;;;;;8.43;100.00;93193.91;2090932;28;20029;-86
2022/06/15 01:46:22;;;;;;;7.28;3.80;;;;;;;8.49;100.00;93194.19;2082432;28;20026;-83
2022/06/15 01:47:27;;;;;;;9.63;4.30;;;;;;;8.51;100.00;93186.56;2092777;28;20025;-87
2022/06/15 01:48:30;;;;;;;7.03;4.10;;;;;;;8.55;100.00;93189.94;2098475;28;20540;-85
2022/06/15 01:49:42;;;;;;;7.25;4.72;;;;;;;8.47;100.00;93186.63;2106252;28;20724;-84
2022/06/15 01:50:51;;;;;;;4.32;3.70;;;;;;;8.46;100.00;93184.34;2107766;28;20032;-84
2022/06/15 01:51:52;;;;;;;7.13;4.22;;;;;;;8.46;100.00;93185.09;2095721;28;20047;-85
2022/06/15 01:53:04;;;;;;;7.30;4.00;;;;;;;8.42;100.00;93189.69;2081716;28;20027;-80
2022/06/15 01:54:11;;;;;;;5.47;3.97;;;;;;;8.42;100.00;93196.94;2084156;28;20454;-87
2022/06/15 01:55:32;;;;;;;8.07;4.40;;;;;;;8.37;100.00;93192.81;2090805;28;20032;-85
2022/06/15 01:56:54;;;;;;;6.57;4.05;;;;;;;8.41;100.00;93188.19;2092235;28;20497;-84
2022/06/15 01:58:01;;;;;;;5.93;3.88;;;;;;;8.39;100.00;93189.78;2095570;28;20024;-86
2022/06/15 01:59:33;;;;;;;6.32;3.80;;;;;;;8.44;100.00;93186.66;2090456;28;20431;-82
2022/06/15 02:00:58;;;;;;;4.30;3.80;;;;;;;8.46;100.00;93184.34;2089467;28;20388;-84
2022/06/15 02:02:33;;;;;;;6.68;3.83;;;;;;;8.50;100.00;93185.78;2096037;28;20019;-86
2022/06/15 02:04:10;;;;;;;7.20;3.80;;;;;;;8.52;100.00;93180.84;2093968;28;20086;-85
2022/06/15 02:05:11;;;;;;;7.32;4.13;;;;;;;8.57;100.00;93180.38;2094076;28;20039;-85
2022/06/15 02:06:30;;;;;;;6.68;4.05;;;;;;;8.54;100.00;93177.75;2094843;28;20105;-84
2022/06/15 02:07:35;;;;;;;9.88;4.20;;;;;;;8.46;100.00;93184.34;2097562;28;20035;-84
2022/06/15 02:09:03;;;;;;;5.03;3.83;;;;;;;8.49;100.00;93184.28;2082348;28;20402;-86
2022/06/15 02:10:20;;;;;;;7.10;4.20;;;;;;;8.48;100.00;93180.13;2097217;28;20032;-85
2022/06/15 02:11:31;;;;;;;6.75;4.22;;;;;;;8.55;100.00;93177.34;2104337;28;20028;-81
2022/06/15 02:13:02;;;;;;;6.65;4.00;;;;;;;8.44;100.00;93176.75;2100644;28;20024;-84
2022/06/15 02:14:10;;;;;;;8.27;4.60;;;;;;;8.40;100.00;93189.38;2093150;28;20079;-85
2022/06/15 02:15:15;;;;;;;6.45;4.40;;;;;;;8.46;100.00;93192.31;2083119;28;20037;-85
2022/06/15 02:16:26;;;;;;;5.95;4.10;;;;;;;8.40;100.00;93189.38;2082021;28;20025;-83
2022/06/15 02:17:32;;;;;;;7.00;4.07;;;;;;;8.36;100.00;93193.19;2087395;28;20025;-86
2022/06/15 02:18:35;;;;;;;6.60;3.97;;;;;;;8.26;100.00;93182.28;2091083;28;20035;-81
2022/06/15 02:19:45;;;;;;;6.30;3.97;;;;;;;8.36;100.00;93188.63;2097768;28;20114;-88
2022/06/15 02:20:53;;;;;;;6.60;4.35;;;;;;;8.37;100.00;93189.41;2090394;28;20405;-85
2022/06/15 02:21:55;;;;;;;8.00;4.82;;;;;;;8.36;100.00;93185.94;2089111;28;21339;-82
2022/06/15 02:23:02;;;;;;;5.63;3.83;;;;;;;8.29;100.00;93181.47;2080992;28;20026;-83
2022/06/15 02:24:05;;;;;;;6.38;3.88;;;;;;;8.24;100.00;93186.47;2090240;28;20027;-87
2022/06/15 02:25:13;;;;;;;13.23;5.00;;;;;;;8.27;100.00;93188.34;2081724;28;20017;-86
2022/06/15 02:26:17;;;;;;;6.60;3.72;;;;;;;8.23;100.00;93187.63;2090550;28;20044;-82
2022/06/15 02:27:21;;;;;;;7.35;4.32;;;;;;;8.23;100.00;93187.63;2089947;28;20029;-85
2022/06/15 02:28:31;;;;;;;8.35;4.65;;;;;;;8.25;100.00;93180.78;2083758;28;20167;-83
2022/06/15 02:29:37;;;;;;;8.18;4.47;;;;;;;8.22;100.00;93180.81;2094193;28;20024;-85
2022/06/15 02:30:40;;;;;;;11.50;4.70;;;;;;;8.15;100.00;93178.22;2101314;28;20024;-83
2022/06/15 02:31:42;;;;;;;6.95;4.20;;;;;;;8.19;100.00;93176.28;2108979;28;20054;-83
2022/06/15 02:32:48;;;;;;;7.63;4.90;;;;;;;8.18;100.00;93177.44;2108925;28;20078;-84
2022/06/15 02:33:53;;;;;;;6.50;4.32;;;;;;;8.13;100.00;93167.97;2088010;28;20033;-85
2022/06/15 02:34:54;;;;;;;8.95;4.90;;;;;;;8.14;100.00;93179.38;2086174;28;20226;-83
2022/06/15 02:35:56;;;;;;;12.35;5.00;;;;;;;8.11;100.00;93166.84;2080679;28;20039;-81
2022/06/15 02:36:57;;;;;;;9.63;4.40;;;;;;;8.14;100.00;93172.13;2089406;28;20033;-84
2022/06/15 02:37:58;;;;;;;7.45;4.82;;;;;;;8.19;100.00;93169.03;2101134;28;20473;-84
2022/06/15 02:39:03;;;;;;;9.05;4.32;;;;;;;8.19;100.00;93166.38;2100732;28;20027;-84
2022/06/15 02:40:24;;;;;;;7.15;4.22;;;;;;;8.10;100.00;93166.09;2089637;28;20502;-87
2022/06/15 02:41:25;;;;;;;10.77;4.50;;;;;;;8.11;100.00;93158.88;2094949;28;20074;-86
2022/06/15 02:42:32;;;;;;;6.55;4.40;;;;;;;8.07;100.00;93164.22;2097004;28;20457;-85
2022/06/15 02:43:33;;;;;;;7.25;4.07;;;;;;;8.14;100.00;93163.41;2090952;28;20035;-83
2022/06/15 02:44:35;;;;;;;7.20;4.30;;;;;;;8.15;100.00;93163.00;2089164;28;20024;-84
2022/06/15 02:45:39;;;;;;;7.38;4.70;;;;;;;8.10;100.00;93165.34;2097668;28;20032;-83
2022/06/15 02:46:45;;;;;;;10.05;4.80;;;;;;;8.04;100.00;93162.38;2104891;28;20032;-86
2022/06/15 02:47:47;;;;;;;8.02;4.80;;;;;;;8.12;100.00;93168.34;2098290;28;20050;-83
2022/06/15 02:48:48;;;;;;;5.43;4.20;;;;;;;8.07;100.00;93164.22;2089471;28;20119;-84
2022/06/15 02:49:51;;;;;;;6.22;4.10;;;;;;;8.07;100.00;93164.22;2091926;28;20104;-84
2022/06/15 02:50:54;;;;;;;7.82;4.38;;;;;;;8.12;100.00;93169.13;2097497;28;20024;-86
2022/06/15 02:52:21;;;;;;;8.05;4.55;;;;;;;8.15;100.00;93162.25;2089789;28;20036;-84
2022/06/15 02:53:27;;;;;;;6.57;4.40;;;;;;;8.12;100.00;93161.16;2093480;28;20127;-83
2022/06/15 02:54:48;;;;;;;5.05;3.83;;;;;;;8.05;100.00;93159.31;2098202;28;20016;-85
2022/06/15 02:55:51;;;;;;;9.40;4.50;;;;;;;8.03;100.00;93158.97;2105530;28;20024;-83
2022/06/15 02:56:52;;;;;;;6.75;4.35;;;;;;;7.99;100.00;93154.81;2089283;28;20021;-85
2022/06/15 02:58:11;;;;;;;7.68;4.40;;;;;;;8.01;100.00;93163.91;2095664;28;20027;-82
2022/06/15 02:59:12;;;;;;;7.55;4.70;;;;;;;7.95;100.00;93162.84;2089432;28;20057;-82
2022/06/15 03:00:15;;;;;;;12.55;5.03;;;;;;;7.99;100.00;93166.22;2089670;28;20028;-87
2022/06/15 03:01:16;;;;;;;5.47;4.10;;;;;;;7.99;100.00;93163.56;2090508;28;20048;-84
2022/06/15 03:02:19;;;;;;;6.22;3.97;;;;;;;7.99;100.00;93154.81;2098276;28;20021;-85
2022/06/15 03:03:23;;;;;;;6.55;3.85;;;;;;;7.99;100.00;93158.25;2098584;28;20020;-83
2022/06/15 03:04:24;;;;;;;5.95;4.35;;;;;;;7.96;100.00;93156.38;2105418;28;20461;-84
2022/06/15 03:05:25;;;;;;;6.97;4.25;;;;;;;7.91;100.00;93151.50;2098193;28;20028;-83
2022/06/15 03:06:29;;;;;;;5.38;4.20;;;;;;;7.85;100.00;93161.03;2106037;28;20023;-84
2022/06/15 03:07:31;;;;;;;4.35;3.90;;;;;;;7.91;100.00;93151.50;2093100;28;20029;-85
2022/06/15 03:08:32;;;;;;;6.65;4.70;;;;;;;7.84;100.00;93156.88;2089192;28;20036;-84
2022/06/15 03:09:32;;;;;;;5.93;4.20;;;;;;;7.87;100.00;93147.38;2089208;28;20149;-85
2022/06/15 03:10:33;;;;;;;8.60;4.30;;;;;;;7.92;100.00;93146.91;2089128;28;20036;-85
2022/06/15 03:11:34;;;;;;;7.13;4.30;;;;;;;7.90;100.00;93155.31;2089364;28;20036;-87
2022/06/15 03:12:36;;;;;;;6.88;4.18;;;;;;;7.86;100.00;93154.59;2093911;28;20021;-85
2022/06/15 03:13:37;;;;;;;7.72;4.20;;;;;;;7.90;100.00;93151.88;2097222;28;20120;-85
2022/06/15 03:14:38;;;;;;;8.52;4.63;;;;;;;7.91;100.00;93158.72;2097239;28;20701;-83
2022/06/15 03:15:41;;;;;;;6.63;4.22;;;;;;;7.89;100.00;93158.34;2089278;28;20021;-83
2022/06/15 03:16:43;;;;;;;7.25;4.50;;;;;;;7.85;100.00;93157.63;2081436;28;20030;-83
2022/06/15 03:17:44;;;;;;;7.18;4.40;;;;;;;7.86;100.00;93157.25;2091044;28;20029;-82
2022/06/15 03:18:46;;;;;;;7.32;4.35;;;;;;;7.88;100.00;93156.84;2090797;28;20035;-85
2022/06/15 03:19:47;;;;;;;8.57;4.30;;;;;;;7.89;100.00;93158.34;2082815;28;20816;-87
2022/06/15 03:20:48;;;;;;;8.80;4.10;;;;;;;7.91;100.00;93162.13;2098802;28;20023;-84
2022/06/15 03:21:50;;;;;;;5.25;3.92;;;;;;;7.91;100.00;93156.06;2106598;28;20016;-81
2022/06/15 03:22:51;;;;;;;5.95;4.45;;;;;;;7.89;100.00;93151.13;2090785;28;20477;-86
2022/06/15 03:23:52;;;;;;;6.90;4.00;;;;;;;7.81;100.00;93149.69;2090364;28;20419;-86
2022/06/15 03:24:53;;;;;;;7.43;4.47;;;;;;;7.79;100.00;93149.34;2098840;28;20716;-82
2022/06/15 03:26:00;;;;;;;8.32;4.60;;;;;;;7.72;100.00;93152.81;2098892;28;20584;-85
2022/06/15 03:27:01;;;;;;;5.97;3.60;;;;;;;7.74;100.00;93150.53;2099698;28;20059;-82
2022/06/15 03:28:02;;;;;;;5.20;4.03;;;;;;;7.84;100.00;93154.22;2090548;28;20029;-84
2022/06/15 03:29:05;;;;;;;8.55;4.93;;;;;;;7.78;100.00;93147.84;2090614;28;20021;-81
2022/06/15 03:30:07;;;;;;;7.03;4.20;;;;;;;7.73;100.00;93154.34;2090797;28;20044;-85
2022/06/15 03:31:08;;;;;;;5.82;4.07;;;;;;;7.68;100.00;93149.47;2090603;28;20021;-86
2022/06/15 03:32:12;;;;;;;7.25;4.40;;;;;;;7.57;100.00;93149.56;2082696;28;20029;-85
2022/06/15 03:33:13;;;;;;;8.13;4.82;;;;;;;7.65;100.00;93152.91;2091404;28;20687;-85
2022/06/15 03:34:17;;;;;;;5.75;4.13;;;;;;;7.64;100.00;93156.72;2090582;28;20025;-84
2022/06/15 03:35:19;;;;;;;5.15;3.67;;;;;;;7.72;100.00;93154.72;2091216;28;20114;-84
2022/06/15 03:36:21;;;;;;;6.45;4.38;;;;;;;7.74;100.00;93155.84;2098770;28;20765;-83
2022/06/15 03:37:22;;;;;;;7.25;4.47;;;;;;;7.71;100.00;93159.28;2098864;28;20556;-84
2022/06/15 03:38:24;;;;;;;7.05;4.30;;;;;;;7.67;100.00;93153.25;2082173;28;20540;-83
2022/06/15 03:39:25;;;;;;;6.32;4.15;;;;;;;7.72;100.00;93157.38;2086009;28;20101;-84
2022/06/15 03:40:26;;;;;;;4.18;3.55;;;;;;;7.79;100.00;93157.31;2098688;28;20033;-86
2022/06/15 03:41:27;;;;;;;6.40;4.28;;;;;;;7.71;100.00;93155.88;2106808;28;20024;-87
2022/06/15 03:42:28;;;;;;;9.88;4.53;;;;;;;7.66;100.00;93159.72;2107013;28;20465;-86
2022/06/15 03:43:29;;;;;;;6.32;4.20;;;;;;;7.65;100.00;93157.47;2098735;28;20025;-86
2022/06/15 03:44:30;;;;;;;5.50;3.85;;;;;;;7.71;100.00;93155.88;2090553;28;20017;-85
2022/06/15 03:45:32;;;;;;;4.78;4.22;;;;;;;7.68;100.00;93156.66;2107102;28;20028;-86
2022/06/15 03:46:33;;;;;;;6.13;4.20;;;;;;;7.69;100.00;93161.59;2106774;28;20098;-84
2022/06/15 03:47:34;;;;;;;5.38;4.28;;;;;;;7.67;100.00;93160.47;2098723;28;20020;-83
2022/06/15 03:48:35;;;;;;;7.20;4.32;;;;;;;7.71;100.00;93159.28;2098578;28;20020;-85
2022/06/15 03:49:36;;;;;;;5.47;4.15;;;;;;;7.72;100.00;93154.72;2098610;28;20028;-86
2022/06/15 03:50:37;;;;;;;5.53;4.22;;;;;;;7.71;100.00;93156.63;2098283;28;20029;-84
2022/06/15 03:51:39;;;;;;;5.90;3.95;;;;;;;7.74;100.00;93157.75;2100161;28;20021;-86
2022/06/15 03:52:40;;;;;;;5.60;4.15;;;;;;;7.74;100.00;93157.75;2098669;28;20021;-85
2022/06/15 03:53:41;;;;;;;5.55;4.15;;;;;;;7.77;100.00;93164.94;2098871;28;20103;-86
2022/06/15 03:54:44;;;;;;;4.47;3.63;;;;;;;7.85;100.00;93168.28;2098914;28;20021;-85
2022/06/15 03:55:45;;;;;;;7.75;4.40;;;;;;;7.83;100.00;93166.78;2090728;28;20091;-85
2022/06/15 03:56:48;;;;;;;3.97;3.55;;;;;;;7.92;100.00;93163.63;2090696;28;20017;-86
2022/06/15 03:57:50;;;;;;;8.82;4.03;;;;;;;7.95;100.00;93159.44;2090470;28;20017;-84
2022/06/15 03:58:51;;;;;;;4.88;3.85;;;;;;;7.95;100.00;93160.19;2090611;28;20481;-85
2022/06/15 03:59:53;;;;;;;5.28;4.15;;;;;;;7.97;100.00;93160.53;2098487;28;20043;-84
2022/06/15 04:00:54;;;;;;;5.88;4.22;;;;;;;7.89;100.00;93163.69;2100910;28;20584;-84
2022/06/15 04:01:56;;;;;;;6.22;4.10;;;;;;;7.88;100.00;93160.25;2090378;28;20078;-86
2022/06/15 04:02:57;;;;;;;5.30;4.30;;;;;;;7.91;100.00;93156.81;2090521;28;20048;-84
2022/06/15 04:03:58;;;;;;;4.45;3.78;;;;;;;7.95;100.00;93156.78;2106198;28;20020;-85
2022/06/15 04:04:59;;;;;;;5.15;4.35;;;;;;;7.90;100.00;93159.84;2090301;28;20055;-83
2022/06/15 04:06:01;;;;;;;6.03;3.97;;;;;;;7.97;100.00;93168.53;2090266;28;20032;-84
2022/06/15 04:07:04;;;;;;;5.88;4.15;;;;;;;7.99;100.00;93162.78;2090382;28;20025;-82
2022/06/15 04:09:27;;;;;;;4.80;3.90;;;;;;;8.11;100.00;93158.88;2098546;28;20020;-86
2022/06/15 04:10:28;;;;;;;8.10;4.28;;;;;;;8.08;100.00;93158.53;2106901;28;20024;-86
2022/06/15 04:12:49;;;;;;;4.38;3.97;;;;;;;8.15;100.00;93156.91;2102058;28;20028;-85
2022/06/15 04:13:51;;;;;;;6.38;4.57;;;;;;;8.16;100.00;93156.50;2098181;28;20064;-84
2022/06/15 04:14:53;;;;;;;6.57;4.82;;;;;;;8.20;100.00;93159.88;2098463;28;20029;-83
2022/06/15 04:15:55;;;;;;;4.70;4.20;;;;;;;8.21;100.00;93164.06;2098572;28;20085;-86
2022/06/15 04:16:59;;;;;;;5.32;4.47;;;;;;;8.23;100.00;93161.75;2090314;28;20021;-87
2022/06/15 04:18:00;;;;;;;4.85;3.95;;;;;;;8.28;100.00;93158.66;2082621;28;20044;-83
2022/06/15 04:19:04;;;;;;;6.05;4.45;;;;;;;8.33;100.00;93160.88;2098349;28;20033;-86
2022/06/15 04:21:26;;;;;;;4.72;4.10;;;;;;;8.36;100.00;93155.91;2101276;28;20115;-86
2022/06/15 04:22:27;;;;;;;7.07;4.40;;;;;;;8.39;100.00;93160.47;2098190;28;20028;-86
2022/06/15 04:23:28;;;;;;;5.43;4.43;;;;;;;8.45;100.00;93156.19;2081943;28;20692;-83
2022/06/15 04:24:30;;;;;;;5.47;4.22;;;;;;;8.49;100.00;93160.31;2090307;28;20071;-86
2022/06/15 04:25:36;;;;;;;5.00;4.40;;;;;;;8.51;100.00;93159.91;2098424;28;20103;-88
2022/06/15 04:26:39;;;;;;;4.78;4.03;;;;;;;8.52;100.00;93153.44;2090578;28;20024;-84
2022/06/15 04:27:41;;;;;;;6.07;4.38;;;;;;;8.50;100.00;93159.16;2090587;28;20029;-89
2022/06/15 04:28:44;;;;;;;8.07;4.70;;;;;;;8.54;100.00;93157.19;2090370;28;20090;-84
2022/06/15 04:29:45;;;;;;;8.65;4.57;;;;;;;8.60;100.00;93157.50;2095073;28;20135;-86
2022/06/15 04:30:46;;;;;;;6.00;4.55;;;;;;;8.66;100.00;93160.50;2081908;28;20120;-83
2022/06/15 04:31:47;;;;;;;7.45;4.50;;;;;;;8.66;100.00;93155.91;2087995;28;20024;-86
2022/06/15 04:32:49;;;;;;;7.70;4.50;;;;;;;8.65;100.00;93157.06;2092319;28;20020;-85
2022/06/15 04:33:50;;;;;;;4.93;4.38;;;;;;;8.65;100.00;93159.75;2090220;28;20386;-83
2022/06/15 04:34:51;;;;;;;4.97;4.47;;;;;;;8.60;100.00;93162.84;2081645;28;20052;-89
2022/06/15 04:35:53;;;;;;;7.22;4.70;;;;;;;8.62;100.00;93155.22;2095258;28;20090;-88
2022/06/15 04:36:53;;;;;;;6.25;4.65;;;;;;;8.70;100.00;93155.88;2097225;28;20441;-84
2022/06/15 04:37:54;;;;;;;6.03;4.22;;;;;;;8.70;100.00;93163.88;2098158;28;20055;-83
2022/06/15 04:38:58;;;;;;;5.57;4.53;;;;;;;8.76;100.00;93165.66;2090137;28;20028;-86
2022/06/15 04:39:59;;;;;;;6.32;4.60;;;;;;;8.78;100.00;93157.25;2090254;28;20028;-88
2022/06/15 04:41:03;;;;;;;6.30;4.20;;;;;;;8.78;100.00;93160.69;2089999;28;20029;-89
2022/06/15 04:42:04;;;;;;;6.60;4.50;;;;;;;8.90;100.00;93159.38;2090454;28;20021;-86
2022/06/15 04:43:06;;;;;;;4.78;4.28;;;;;;;8.91;100.00;93158.22;2090211;28;20024;-88
2022/06/15 04:44:09;;;;;;;5.82;4.15;;;;;;;8.94;100.00;93152.06;2095119;28;20074;-85
2022/06/15 04:45:12;;;;;;;5.15;4.65;;;;;;;8.99;100.00;93161.53;2098249;28;20508;-85
2022/06/15 04:46:13;;;;;;;6.15;4.50;;;;;;;9.15;100.00;93158.25;2099616;28;20024;-85
2022/06/15 04:47:14;;;;;;;7.35;4.80;;;;;;;9.14;100.00;93154.81;2098186;28;20043;-87
2022/06/15 04:48:15;;;;;;;5.78;4.68;;;;;;;9.11;100.00;93152.97;2090091;28;20029;-84
2022/06/15 04:49:16;;;;;;;5.10;4.28;;;;;;;9.17;100.00;93155.91;2098132;28;20032;-86
2022/06/15 04:50:17;;;;;;;6.70;4.65;;;;;;;9.22;100.00;93155.44;2098092;28;20017;-87
2022/06/15 04:51:21;;;;;;;5.72;5.10;;;;;;;9.27;100.00;93163.00;2087844;28;20024;-87
2022/06/15 04:52:23;;;;;;;7.50;4.57;;;;;;;9.29;100.00;93164.09;2090535;28;20025;-87
2022/06/15 04:53:23;;;;;;;5.95;4.65;;;;;;;9.31;100.00;93166.38;2094756;28;20024;-84
2022/06/15 04:54:25;;;;;;;5.45;4.43;;;;;;;9.33;100.00;93154.13;2086153;28;20025;-86
2022/06/15 04:55:26;;;;;;;5.40;4.57;;;;;;;9.44;100.00;93161.97;2098839;28;20023;-89
2022/06/15 04:56:39;;;;;;;4.97;4.47;;;;;;;9.53;100.00;93156.84;2112594;28;20036;-86
2022/06/15 04:57:40;;;;;;;6.18;4.25;;;;;;;9.55;100.00;93159.84;2097950;28;20028;-84
2022/06/15 04:58:43;;;;;;;5.53;4.57;;;;;;;9.69;100.00;93158.09;2094227;28;20048;-87
2022/06/15 04:59:43;;;;;;;5.63;4.38;;;;;;;9.72;100.00;93160.72;2095645;28;20024;-87
2022/06/15 05:00:46;;;;;;;5.22;4.47;;;;;;;9.75;100.00;93164.50;2083417;28;20029;-83
2022/06/15 05:01:47;;;;;;;6.40;5.65;;;;;;;9.78;100.00;93158.31;2096813;28;20025;-86
2022/06/15 05:02:48;;;;;;;5.60;4.80;;;;;;;9.80;100.00;93162.09;2096538;28;20075;-86
2022/06/15 05:03:49;;;;;;;5.05;4.53;;;;;;;9.83;100.00;93163.19;2105372;28;20047;-86
2022/06/15 05:04:50;;;;;;;5.20;4.65;;;;;;;9.89;100.00;93164.22;2090024;28;20099;-87
2022/06/15 05:05:58;;;;;;;7.32;5.00;;;;;;;9.91;100.00;93159.22;2095815;28;20052;-86
2022/06/15 05:06:59;;;;;;;5.78;4.88;;;;;;;9.93;100.00;93162.25;2101196;28;20098;-84
2022/06/15 05:08:00;;;;;;;4.85;4.38;;;;;;;10.06;100.00;93167.75;2096688;28;20055;-84
2022/06/15 05:09:03;;;;;;;4.85;4.38;;;;;;;10.16;100.00;93166.78;2097245;28;20109;-86
2022/06/15 05:10:06;;;;;;;9.20;4.70;;;;;;;10.23;100.00;93165.91;2095499;28;20127;-87
2022/06/15 05:11:08;;;;;;;4.85;4.10;;;;;;;10.25;100.00;93163.56;2087838;28;20115;-84
2022/06/15 05:12:09;;;;;;;5.35;4.22;;;;;;;10.32;100.00;93166.88;2101233;28;20030;-82
2022/06/15 05:13:10;;;;;;;5.32;4.10;;;;;;;10.38;100.00;93167.13;2090589;28;20048;-87
2022/06/15 05:14:11;;;;;;;7.75;4.75;;;;;;;10.38;100.00;93169.06;2080138;28;20045;-88
2022/06/15 05:15:13;;;;;;;5.75;4.50;;;;;;;10.43;100.00;93169.31;2082116;28;20634;-85